sensor_id;sensor_type;location;lat;lon;timestamp;pressure;altitude;pressure_sealevel;temperature
76009;BMP280;64700;52.130;21.270;2023-04-06T00:02:03;101172.03;;;21.03
76009;BMP280;64700;52.130;21.270;2023-04-06T00:04:28;101159.34;;;21.00
76009;BMP280;64700;52.130;21.270;2023-04-06T00:06:53;101168.59;;;21.03
76009;BMP280;64700;52.130;21.270;2023-04-06T00:09:18;101166.75;;;21.00
76009;BMP280;64700;52.130;21.270;2023-04-06T00:11:44;101165.56;;;21.01
76009;BMP280;64700;52.130;21.270;2023-04-06T00:14:09;101162.84;;;21.01
76009;BMP280;64700;52.130;21.270;2023-04-06T00:16:34;101155.13;;;20.99
76009;BMP280;64700;52.130;21.270;2023-04-06T00:19:00;101163.28;;;20.99
76009;BMP280;64700;52.130;21.270;2023-04-06T00:21:25;101153.63;;;20.98
76009;BMP280;64700;52.130;21.270;2023-04-06T00:23:50;101150.16;;;20.98
76009;BMP280;64700;52.130;21.270;2023-04-06T00:26:15;101143.47;;;20.99
76009;BMP280;64700;52.130;21.270;2023-04-06T00:28:41;101150.16;;;20.98
76009;BMP280;64700;52.130;21.270;2023-04-06T00:31:06;101145.91;;;20.97
76009;BMP280;64700;52.130;21.270;2023-04-06T00:33:31;101139.28;;;20.98
76009;BMP280;64700;52.130;21.270;2023-04-06T00:35:57;101143.19;;;20.97
76009;BMP280;64700;52.130;21.270;2023-04-06T00:38:22;101143.94;;;20.97
76009;BMP280;64700;52.130;21.270;2023-04-06T00:40:48;101133.50;;;20.96
76009;BMP280;64700;52.130;21.270;2023-04-06T00:43:13;101134.59;;;20.98
76009;BMP280;64700;52.130;21.270;2023-04-06T00:45:39;101129.16;;;20.98
76009;BMP280;64700;52.130;21.270;2023-04-06T00:48:05;101125.81;;;20.94
76009;BMP280;64700;52.130;21.270;2023-04-06T00:50:30;101128.97;;;20.92
76009;BMP280;64700;52.130;21.270;2023-04-06T00:52:55;101134.59;;;20.98
76009;BMP280;64700;52.130;21.270;2023-04-06T00:55:20;101129.59;;;20.97
76009;BMP280;64700;52.130;21.270;2023-04-06T00:57:46;101129.59;;;20.97
76009;BMP280;64700;52.130;21.270;2023-04-06T01:00:12;101122.63;;;20.96
76009;BMP280;64700;52.130;21.270;2023-04-06T01:02:37;101117.22;;;20.96
76009;BMP280;64700;52.130;21.270;2023-04-06T01:05:03;101124.59;;;20.95
76009;BMP280;64700;52.130;21.270;2023-04-06T01:07:28;101119.16;;;20.95
76009;BMP280;64700;52.130;21.270;2023-04-06T01:09:54;101122.63;;;20.96
76009;BMP280;64700;52.130;21.270;2023-04-06T01:12:19;101119.91;;;20.96
76009;BMP280;64700;52.130;21.270;2023-04-06T01:14:44;101116.44;;;20.95
76009;BMP280;64700;52.130;21.270;2023-04-06T01:17:10;101116.91;;;20.94
76009;BMP280;64700;52.130;21.270;2023-04-06T01:19:35;101115.38;;;20.92
76009;BMP280;64700;52.130;21.270;2023-04-06T01:22:01;101109.16;;;20.92
76009;BMP280;64700;52.130;21.270;2023-04-06T01:24:26;101109.59;;;20.90
76009;BMP280;64700;52.130;21.270;2023-04-06T01:26:51;101102.97;;;20.91
76009;BMP280;64700;52.130;21.270;2023-04-06T01:29:17;101103.44;;;20.90
76009;BMP280;64700;52.130;21.270;2023-04-06T01:31:42;101097.84;;;20.84
76009;BMP280;64700;52.130;21.270;2023-04-06T01:34:07;101096.63;;;20.85
76009;BMP280;64700;52.130;21.270;2023-04-06T01:36:32;101094.69;;;20.86
76009;BMP280;64700;52.130;21.270;2023-04-06T01:38:58;101100.72;;;20.90
76009;BMP280;64700;52.130;21.270;2023-04-06T01:41:23;101089.53;;;20.88
76009;BMP280;64700;52.130;21.270;2023-04-06T01:43:48;101088.00;;;20.87
76009;BMP280;64700;52.130;21.270;2023-04-06T01:46:14;101095.88;;;20.85
76009;BMP280;64700;52.130;21.270;2023-04-06T01:48:39;101099.50;;;20.91
76009;BMP280;64700;52.130;21.270;2023-04-06T01:51:05;101098.13;;;20.86
76009;BMP280;64700;52.130;21.270;2023-04-06T01:53:30;101086.53;;;20.86
76009;BMP280;64700;52.130;21.270;2023-04-06T01:55:55;101088.47;;;20.85
76009;BMP280;64700;52.130;21.270;2023-04-06T01:58:20;101094.69;;;20.86
76009;BMP280;64700;52.130;21.270;2023-04-06T02:00:45;101095.41;;;20.86
76009;BMP280;64700;52.130;21.270;2023-04-06T02:03:11;101091.66;;;20.84
76009;BMP280;64700;52.130;21.270;2023-04-06T02:05:36;101094.22;;;20.87
76009;BMP280;64700;52.130;21.270;2023-04-06T02:08:05;101091.06;;;20.89
76009;BMP280;64700;52.130;21.270;2023-04-06T02:10:31;101089.84;;;20.90
76009;BMP280;64700;52.130;21.270;2023-04-06T02:12:57;101083.66;;;20.89
76009;BMP280;64700;52.130;21.270;2023-04-06T02:15:22;101081.38;;;20.88
76009;BMP280;64700;52.130;21.270;2023-04-06T02:17:47;101087.88;;;20.90
76009;BMP280;64700;52.130;21.270;2023-04-06T02:20:12;101071.53;;;20.90
76009;BMP280;64700;52.130;21.270;2023-04-06T02:22:38;101067.34;;;20.89
76009;BMP280;64700;52.130;21.270;2023-04-06T02:25:03;101066.88;;;20.91
76009;BMP280;64700;52.130;21.270;2023-04-06T02:27:29;101068.09;;;20.90
76009;BMP280;64700;52.130;21.270;2023-04-06T02:29:54;101068.09;;;20.90
76009;BMP280;64700;52.130;21.270;2023-04-06T02:32:19;101069.59;;;20.91
76009;BMP280;64700;52.130;21.270;2023-04-06T02:34:45;101070.97;;;20.96
76009;BMP280;64700;52.130;21.270;2023-04-06T02:37:10;101067.06;;;20.97
76009;BMP280;64700;52.130;21.270;2023-04-06T02:39:35;101068.56;;;20.98
76009;BMP280;64700;52.130;21.270;2023-04-06T02:42:00;101051.50;;;20.97
76009;BMP280;64700;52.130;21.270;2023-04-06T02:44:26;101060.22;;;20.92
76009;BMP280;64700;52.130;21.270;2023-04-06T02:46:51;101061.44;;;20.91
76009;BMP280;64700;52.130;21.270;2023-04-06T02:49:16;101061.16;;;20.89
76009;BMP280;64700;52.130;21.270;2023-04-06T02:51:41;101057.94;;;20.90
76009;BMP280;64700;52.130;21.270;2023-04-06T02:54:07;101062.19;;;20.91
76009;BMP280;64700;52.130;21.270;2023-04-06T02:56:32;101056.91;;;20.88
76009;BMP280;64700;52.130;21.270;2023-04-06T02:58:57;101062.19;;;20.91
76009;BMP280;64700;52.130;21.270;2023-04-06T03:01:22;101062.34;;;20.88
76009;BMP280;64700;52.130;21.270;2023-04-06T03:03:48;101061.00;;;20.92
76009;BMP280;64700;52.130;21.270;2023-04-06T03:06:13;101065.66;;;20.92
76009;BMP280;64700;52.130;21.270;2023-04-06T03:08:38;101066.25;;;20.87
76009;BMP280;64700;52.130;21.270;2023-04-06T03:11:03;101064.31;;;20.87
76009;BMP280;64700;52.130;21.270;2023-04-06T03:13:28;101067.50;;;20.86
76009;BMP280;64700;52.130;21.270;2023-04-06T03:15:54;101062.06;;;20.86
76009;BMP280;64700;52.130;21.270;2023-04-06T03:18:23;101060.53;;;20.85
76009;BMP280;64700;52.130;21.270;2023-04-06T03:20:48;101067.19;;;20.84
76009;BMP280;64700;52.130;21.270;2023-04-06T03:23:13;101063.53;;;20.87
76009;BMP280;64700;52.130;21.270;2023-04-06T03:25:39;101060.53;;;20.85
76009;BMP280;64700;52.130;21.270;2023-04-06T03:28:07;101065.66;;;20.83
76009;BMP280;64700;52.130;21.270;2023-04-06T03:30:32;101070.34;;;20.82
76009;BMP280;64700;52.130;21.270;2023-04-06T03:32:57;101062.06;;;20.86
76009;BMP280;64700;52.130;21.270;2023-04-06T03:35:23;101069.59;;;20.82
76009;BMP280;64700;52.130;21.270;2023-04-06T03:37:48;101067.78;;;20.79
76009;BMP280;64700;52.130;21.270;2023-04-06T03:40:14;101068.84;;;20.81
76009;BMP280;64700;52.130;21.270;2023-04-06T03:42:39;101067.19;;;20.84
76009;BMP280;64700;52.130;21.270;2023-04-06T03:45:05;101063.41;;;20.81
76009;BMP280;64700;52.130;21.270;2023-04-06T03:47:30;101068.84;;;20.81
76009;BMP280;64700;52.130;21.270;2023-04-06T03:49:55;101068.38;;;20.83
76009;BMP280;64700;52.130;21.270;2023-04-06T03:52:21;101064.28;;;20.78
76009;BMP280;64700;52.130;21.270;2023-04-06T03:54:48;101057.66;;;20.79
76009;BMP280;64700;52.130;21.270;2023-04-06T03:57:13;101060.06;;;20.77
76009;BMP280;64700;52.130;21.270;2023-04-06T03:59:38;101053.75;;;20.80
76009;BMP280;64700;52.130;21.270;2023-04-06T04:02:03;101051.91;;;20.77
76009;BMP280;64700;52.130;21.270;2023-04-06T04:04:28;101055.25;;;20.81
76009;BMP280;64700;52.130;21.270;2023-04-06T04:06:54;101058.13;;;20.78
76009;BMP280;64700;52.130;21.270;2023-04-06T04:09:19;101050.69;;;20.78
76009;BMP280;64700;52.130;21.270;2023-04-06T04:11:45;101053.28;;;20.82
76009;BMP280;64700;52.130;21.270;2023-04-06T04:14:10;101052.22;;;20.79
76009;BMP280;64700;52.130;21.270;2023-04-06T04:16:35;101052.53;;;20.81
76009;BMP280;64700;52.130;21.270;2023-04-06T04:19:01;101049.97;;;20.78
76009;BMP280;64700;52.130;21.270;2023-04-06T04:21:29;101052.69;;;20.78
76009;BMP280;64700;52.130;21.270;2023-04-06T04:23:55;101051.91;;;20.77
76009;BMP280;64700;52.130;21.270;2023-04-06T04:26:20;101050.69;;;20.78
76009;BMP280;64700;52.130;21.270;2023-04-06T04:28:45;101045.72;;;20.77
76009;BMP280;64700;52.130;21.270;2023-04-06T04:31:11;101046.03;;;20.79
76009;BMP280;64700;52.130;21.270;2023-04-06T04:33:36;101038.63;;;20.79
76009;BMP280;64700;52.130;21.270;2023-04-06T04:36:01;101033.19;;;20.79
76009;BMP280;64700;52.130;21.270;2023-04-06T04:38:26;101035.16;;;20.79
76009;BMP280;64700;52.130;21.270;2023-04-06T04:40:51;101034.72;;;20.80
76009;BMP280;64700;52.130;21.270;2023-04-06T04:43:17;101028.06;;;20.81
76009;BMP280;64700;52.130;21.270;2023-04-06T04:45:42;101036.22;;;20.81
76009;BMP280;64700;52.130;21.270;2023-04-06T04:48:07;101030.16;;;20.77
76009;BMP280;64700;52.130;21.270;2023-04-06T04:50:33;101025.03;;;20.79
76009;BMP280;64700;52.130;21.270;2023-04-06T04:52:58;101032.44;;;20.79
76009;BMP280;64700;52.130;21.270;2023-04-06T04:55:24;101030.31;;;20.83
76009;BMP280;64700;52.130;21.270;2023-04-06T04:57:49;101028.84;;;20.82
76009;BMP280;64700;52.130;21.270;2023-04-06T05:00:15;101028.34;;;20.83
76009;BMP280;64700;52.130;21.270;2023-04-06T05:02:40;101028.06;;;20.81
76009;BMP280;64700;52.130;21.270;2023-04-06T05:05:05;101039.81;;;20.78
76009;BMP280;64700;52.130;21.270;2023-04-06T05:07:31;101039.38;;;20.80
76009;BMP280;64700;52.130;21.270;2023-04-06T05:09:56;101028.34;;;20.83
76009;BMP280;64700;52.130;21.270;2023-04-06T05:12:21;101034.72;;;20.80
76009;BMP280;64700;52.130;21.270;2023-04-06T05:14:46;101023.53;;;20.78
76009;BMP280;64700;52.130;21.270;2023-04-06T05:17:12;101025.19;;;20.85
76009;BMP280;64700;52.130;21.270;2023-04-06T05:19:37;101026.84;;;20.82
76009;BMP280;64700;52.130;21.270;2023-04-06T05:22:02;101024.13;;;20.82
76009;BMP280;64700;52.130;21.270;2023-04-06T05:24:27;101026.41;;;20.84
76009;BMP280;64700;52.130;21.270;2023-04-06T05:26:53;101026.13;;;20.82
76009;BMP280;64700;52.130;21.270;2023-04-06T05:29:18;101028.06;;;20.81
76009;BMP280;64700;52.130;21.270;2023-04-06T05:31:43;101025.03;;;20.79
76009;BMP280;64700;52.130;21.270;2023-04-06T05:34:09;101023.69;;;20.84
76009;BMP280;64700;52.130;21.270;2023-04-06T05:36:34;101021.13;;;20.80
76009;BMP280;64700;52.130;21.270;2023-04-06T05:39:00;101021.25;;;20.77
76009;BMP280;64700;52.130;21.270;2023-04-06T05:41:25;101014.91;;;20.80
76009;BMP280;64700;52.130;21.270;2023-04-06T05:43:51;101014.47;;;20.81
76009;BMP280;64700;52.130;21.270;2023-04-06T05:46:17;101015.03;;;20.76
76009;BMP280;64700;52.130;21.270;2023-04-06T05:48:43;101016.88;;;20.79
76009;BMP280;64700;52.130;21.270;2023-04-06T05:51:08;101009.50;;;20.80
76009;BMP280;64700;52.130;21.270;2023-04-06T05:53:33;101013.41;;;20.79
76009;BMP280;64700;52.130;21.270;2023-04-06T05:56:02;101023.41;;;20.82
76009;BMP280;64700;52.130;21.270;2023-04-06T05:58:27;101016.88;;;20.79
76009;BMP280;64700;52.130;21.270;2023-04-06T06:01:02;101019.59;;;20.79
76009;BMP280;64700;52.130;21.270;2023-04-06T06:03:28;101013.25;;;20.82
76009;BMP280;64700;52.130;21.270;2023-04-06T06:05:58;101020.53;;;20.85
76009;BMP280;64700;52.130;21.270;2023-04-06T06:08:24;101007.22;;;20.87
76009;BMP280;64700;52.130;21.270;2023-04-06T06:10:49;101001.50;;;20.85
76009;BMP280;64700;52.130;21.270;2023-04-06T06:13:15;100994.56;;;20.94
76009;BMP280;64700;52.130;21.270;2023-04-06T06:15:40;101001.66;;;21.00
76009;BMP280;64700;52.130;21.270;2023-04-06T06:18:05;101008.28;;;20.99
76009;BMP280;64700;52.130;21.270;2023-04-06T06:20:30;101002.88;;;21.08
76009;BMP280;64700;52.130;21.270;2023-04-06T06:22:56;100997.44;;;21.08
76009;BMP280;64700;52.130;21.270;2023-04-06T06:25:21;100999.84;;;21.06
76009;BMP280;64700;52.130;21.270;2023-04-06T06:27:46;100996.50;;;21.11
76009;BMP280;64700;52.130;21.270;2023-04-06T06:30:12;100994.56;;;21.12
76009;BMP280;64700;52.130;21.270;2023-04-06T06:32:37;100989.13;;;21.12
76009;BMP280;64700;52.130;21.270;2023-04-06T06:35:02;100986.56;;;21.08
76009;BMP280;64700;52.130;21.270;2023-04-06T06:37:28;100994.84;;;21.05
76009;BMP280;64700;52.130;21.270;2023-04-06T06:39:53;100992.44;;;21.07
76009;BMP280;64700;52.130;21.270;2023-04-06T06:42:18;100996.06;;;21.04
76009;BMP280;64700;52.130;21.270;2023-04-06T06:44:43;100985.78;;;20.99
76009;BMP280;64700;52.130;21.270;2023-04-06T06:47:08;100985.16;;;21.04
76009;BMP280;64700;52.130;21.270;2023-04-06T06:49:34;100988.22;;;21.06
76009;BMP280;64700;52.130;21.270;2023-04-06T06:51:59;100992.75;;;21.09
76009;BMP280;64700;52.130;21.270;2023-04-06T06:54:24;100997.28;;;21.03
76009;BMP280;64700;52.130;21.270;2023-04-06T06:56:50;100989.84;;;21.03
76009;BMP280;64700;52.130;21.270;2023-04-06T06:59:15;100998.31;;;21.05
76009;BMP280;64700;52.130;21.270;2023-04-06T07:01:41;100989.28;;;21.08
76009;BMP280;64700;52.130;21.270;2023-04-06T07:04:06;100980.19;;;21.11
76009;BMP280;64700;52.130;21.270;2023-04-06T07:06:33;100991.56;;;21.10
76009;BMP280;64700;52.130;21.270;2023-04-06T07:08:58;100991.84;;;21.12
76009;BMP280;64700;52.130;21.270;2023-04-06T07:11:23;100975.06;;;21.13
76009;BMP280;64700;52.130;21.270;2023-04-06T07:13:49;100977.03;;;21.13
76009;BMP280;64700;52.130;21.270;2023-04-06T07:16:14;100974.63;;;21.15
76009;BMP280;64700;52.130;21.270;2023-04-06T07:18:41;100991.06;;;21.11
76009;BMP280;64700;52.130;21.270;2023-04-06T07:21:06;100976.00;;;21.10
76009;BMP280;64700;52.130;21.270;2023-04-06T07:23:32;100984.91;;;21.11
76009;BMP280;64700;52.130;21.270;2023-04-06T07:25:57;100984.75;;;21.14
76009;BMP280;64700;52.130;21.270;2023-04-06T07:28:22;100987.16;;;21.12
76009;BMP280;64700;52.130;21.270;2023-04-06T07:30:48;100986.25;;;21.15
76009;BMP280;64700;52.130;21.270;2023-04-06T07:33:13;100984.13;;;21.19
76009;BMP280;64700;52.130;21.270;2023-04-06T07:35:38;100982.47;;;21.22
76009;BMP280;64700;52.130;21.270;2023-04-06T07:38:04;100991.81;;;21.21
76009;BMP280;64700;52.130;21.270;2023-04-06T07:40:29;100988.94;;;21.15
76009;BMP280;64700;52.130;21.270;2023-04-06T07:42:56;100972.50;;;21.19
76009;BMP280;64700;52.130;21.270;2023-04-06T07:45:22;100982.78;;;21.24
76009;BMP280;64700;52.130;21.270;2023-04-06T07:47:47;100975.69;;;21.26
76009;BMP280;64700;52.130;21.270;2023-04-06T07:50:12;100970.81;;;21.40
76009;BMP280;64700;52.130;21.270;2023-04-06T07:52:38;100971.72;;;21.46
76009;BMP280;64700;52.130;21.270;2023-04-06T07:55:06;100974.44;;;21.46
76009;BMP280;64700;52.130;21.270;2023-04-06T07:57:32;100974.88;;;21.44
76009;BMP280;64700;52.130;21.270;2023-04-06T07:59:57;100972.47;;;21.46
76009;BMP280;64700;52.130;21.270;2023-04-06T08:02:22;100975.94;;;21.47
76009;BMP280;64700;52.130;21.270;2023-04-06T08:04:48;100971.72;;;21.46
76009;BMP280;64700;52.130;21.270;2023-04-06T08:07:13;100969.16;;;21.42
76009;BMP280;64700;52.130;21.270;2023-04-06T08:09:38;100972.63;;;21.43
76009;BMP280;64700;52.130;21.270;2023-04-06T08:12:04;100967.94;;;21.34
76009;BMP280;64700;52.130;21.270;2023-04-06T08:14:29;100961.59;;;21.37
76009;BMP280;64700;52.130;21.270;2023-04-06T08:16:54;100972.31;;;21.41
76009;BMP280;64700;52.130;21.270;2023-04-06T08:19:20;100961.44;;;21.41
76009;BMP280;64700;52.130;21.270;2023-04-06T08:21:45;100959.78;;;21.43
76009;BMP280;64700;52.130;21.270;2023-04-06T08:24:12;100968.69;;;21.44
76009;BMP280;64700;52.130;21.270;2023-04-06T08:26:37;100957.81;;;21.44
76009;BMP280;64700;52.130;21.270;2023-04-06T08:29:02;100960.72;;;21.31
76009;BMP280;64700;52.130;21.270;2023-04-06T08:31:29;100951.34;;;21.14
76009;BMP280;64700;52.130;21.270;2023-04-06T08:33:54;100955.44;;;21.09
76009;BMP280;64700;52.130;21.270;2023-04-06T08:36:19;100959.50;;;21.05
76009;BMP280;64700;52.130;21.270;2023-04-06T08:38:48;100951.19;;;20.99
76009;BMP280;64700;52.130;21.270;2023-04-06T08:41:14;100958.59;;;20.99
76009;BMP280;64700;52.130;21.270;2023-04-06T08:43:43;100952.88;;;20.97
76009;BMP280;64700;52.130;21.270;2023-04-06T08:46:11;100957.09;;;20.98
76009;BMP280;64700;52.130;21.270;2023-04-06T08:48:38;100950.75;;;21.10
76009;BMP280;64700;52.130;21.270;2023-04-06T08:51:03;100952.56;;;21.13
76009;BMP280;64700;52.130;21.270;2023-04-06T08:53:28;100943.78;;;21.18
76009;BMP280;64700;52.130;21.270;2023-04-06T08:55:54;100939.25;;;21.24
76009;BMP280;64700;52.130;21.270;2023-04-06T08:58:19;100940.47;;;21.23
76009;BMP280;64700;52.130;21.270;2023-04-06T09:00:46;100931.84;;;21.15
76009;BMP280;64700;52.130;21.270;2023-04-06T09:03:12;100934.28;;;21.22
76009;BMP280;64700;52.130;21.270;2023-04-06T09:05:37;100924.44;;;21.25
76009;BMP280;64700;52.130;21.270;2023-04-06T09:08:03;100922.94;;;21.24
76009;BMP280;64700;52.130;21.270;2023-04-06T09:10:28;100920.22;;;21.24
76009;BMP280;64700;52.130;21.270;2023-04-06T09:13:02;100910.84;;;21.25
76009;BMP280;64700;52.130;21.270;2023-04-06T09:15:27;100903.00;;;21.27
76009;BMP280;64700;52.130;21.270;2023-04-06T09:17:52;100913.28;;;21.23
76009;BMP280;64700;52.130;21.270;2023-04-06T09:20:25;100907.25;;;21.10
76009;BMP280;64700;52.130;21.270;2023-04-06T09:22:51;100905.13;;;21.14
76009;BMP280;64700;52.130;21.270;2023-04-06T09:25:23;100900.44;;;21.14
76009;BMP280;64700;52.130;21.270;2023-04-06T09:28:00;100904.22;;;21.08
76009;BMP280;64700;52.130;21.270;2023-04-06T09:30:25;100896.97;;;21.14
76009;BMP280;64700;52.130;21.270;2023-04-06T09:32:52;100900.41;;;21.23
76009;BMP280;64700;52.130;21.270;2023-04-06T09:35:18;100892.84;;;21.27
76009;BMP280;64700;52.130;21.270;2023-04-06T09:37:46;100897.84;;;21.29
76009;BMP280;64700;52.130;21.270;2023-04-06T09:40:13;100904.47;;;21.28
76009;BMP280;64700;52.130;21.270;2023-04-06T09:42:40;100907.34;;;21.33
76009;BMP280;64700;52.130;21.270;2023-04-06T09:45:05;100903.88;;;21.33
76009;BMP280;64700;52.130;21.270;2023-04-06T09:47:31;100886.69;;;21.27
76009;BMP280;64700;52.130;21.270;2023-04-06T09:49:58;100887.56;;;21.24
76009;BMP280;64700;52.130;21.270;2023-04-06T09:52:24;100892.56;;;21.25
76009;BMP280;64700;52.130;21.270;2023-04-06T09:54:51;100891.34;;;21.17
76009;BMP280;64700;52.130;21.270;2023-04-06T09:57:22;100890.25;;;21.33
76009;BMP280;64700;52.130;21.270;2023-04-06T10:02:30;100889.94;;;21.40
76009;BMP280;64700;52.130;21.270;2023-04-06T10:04:58;100874.53;;;21.37
76009;BMP280;64700;52.130;21.270;2023-04-06T10:07:25;100866.53;;;21.33
76009;BMP280;64700;52.130;21.270;2023-04-06T10:09:51;100864.25;;;21.41
76009;BMP280;64700;52.130;21.270;2023-04-06T10:12:18;100869.88;;;21.38
76009;BMP280;64700;52.130;21.270;2023-04-06T10:14:43;100872.72;;;21.34
76009;BMP280;64700;52.130;21.270;2023-04-06T10:17:09;100874.53;;;21.37
76009;BMP280;64700;52.130;21.270;2023-04-06T10:20:20;100874.53;;;21.37
76009;BMP280;64700;52.130;21.270;2023-04-06T10:22:49;100867.16;;;21.38
76009;BMP280;64700;52.130;21.270;2023-04-06T10:25:15;100863.81;;;21.33
76009;BMP280;64700;52.130;21.270;2023-04-06T10:27:40;100866.22;;;21.31
76009;BMP280;64700;52.130;21.270;2023-04-06T10:30:06;100865.59;;;21.37
76009;BMP280;64700;52.130;21.270;2023-04-06T10:32:35;100859.13;;;21.34
76009;BMP280;64700;52.130;21.270;2023-04-06T10:35:09;100854.63;;;21.31
76009;BMP280;64700;52.130;21.270;2023-04-06T10:40:19;100853.56;;;21.28
76009;BMP280;64700;52.130;21.270;2023-04-06T10:42:45;100845.13;;;21.26
76009;BMP280;64700;52.130;21.270;2023-04-06T10:45:20;100837.22;;;21.28
76009;BMP280;64700;52.130;21.270;2023-04-06T10:47:46;100841.63;;;21.26
76009;BMP280;64700;52.130;21.270;2023-04-06T10:50:12;100833.59;;;21.31
76009;BMP280;64700;52.130;21.270;2023-04-06T10:52:39;100838.00;;;21.29
76009;BMP280;64700;52.130;21.270;2023-04-06T10:55:04;100834.69;;;21.25
76009;BMP280;64700;52.130;21.270;2023-04-06T10:57:30;100826.97;;;21.23
76009;BMP280;64700;52.130;21.270;2023-04-06T10:59:58;100833.16;;;21.24
76009;BMP280;64700;52.130;21.270;2023-04-06T11:02:23;100823.06;;;21.24
76009;BMP280;64700;52.130;21.270;2023-04-06T11:04:55;100823.06;;;21.24
76009;BMP280;64700;52.130;21.270;2023-04-06T11:07:27;100813.38;;;21.23
76009;BMP280;64700;52.130;21.270;2023-04-06T11:09:54;100830.59;;;21.20
76009;BMP280;64700;52.130;21.270;2023-04-06T11:12:23;100827.44;;;21.22
76009;BMP280;64700;52.130;21.270;2023-04-06T11:14:58;100826.66;;;21.21
76009;BMP280;64700;52.130;21.270;2023-04-06T11:17:36;100820.19;;;21.19
76009;BMP280;64700;52.130;21.270;2023-04-06T11:20:02;100810.34;;;21.21
76009;BMP280;64700;52.130;21.270;2023-04-06T11:22:27;100815.22;;;21.17
76009;BMP280;64700;52.130;21.270;2023-04-06T11:24:53;100818.50;;;21.21
76009;BMP280;64700;52.130;21.270;2023-04-06T11:27:29;100814.75;;;21.19
76009;BMP280;64700;52.130;21.270;2023-04-06T11:29:56;100812.66;;;21.23
76009;BMP280;64700;52.130;21.270;2023-04-06T11:32:21;100812.50;;;21.17
76009;BMP280;64700;52.130;21.270;2023-04-06T11:34:47;100807.22;;;21.23
76009;BMP280;64700;52.130;21.270;2023-04-06T11:37:12;100804.59;;;21.28
76009;BMP280;64700;52.130;21.270;2023-04-06T11:39:43;100799.75;;;21.32
76009;BMP280;64700;52.130;21.270;2023-04-06T11:42:11;100796.84;;;21.36
76009;BMP280;64700;52.130;21.270;2023-04-06T11:44:40;100797.78;;;21.33
76009;BMP280;64700;52.130;21.270;2023-04-06T11:47:08;100795.22;;;21.39
76009;BMP280;64700;52.130;21.270;2023-04-06T11:49:36;100780.38;;;21.40
76009;BMP280;64700;52.130;21.270;2023-04-06T11:52:01;100774.66;;;21.38
76009;BMP280;64700;52.130;21.270;2023-04-06T11:54:36;100757.53;;;21.37
76009;BMP280;64700;52.130;21.270;2023-04-06T11:57:05;100758.94;;;21.32
76009;BMP280;64700;52.130;21.270;2023-04-06T11:59:31;100765.88;;;21.43
76009;BMP280;64700;52.130;21.270;2023-04-06T12:01:57;100754.81;;;21.46
76009;BMP280;64700;52.130;21.270;2023-04-06T12:04:22;100758.53;;;21.49
76009;BMP280;64700;52.130;21.270;2023-04-06T12:06:47;100783.66;;;21.53
76009;BMP280;64700;52.130;21.270;2023-04-06T12:09:13;100776.56;;;21.46
76009;BMP280;64700;52.130;21.270;2023-04-06T12:11:38;100762.22;;;21.46
76009;BMP280;64700;52.130;21.270;2023-04-06T12:14:04;100755.25;;;21.45
76009;BMP280;64700;52.130;21.270;2023-04-06T12:16:30;100764.81;;;21.40
76009;BMP280;64700;52.130;21.270;2023-04-06T12:18:55;100771.75;;;21.41
76009;BMP280;64700;52.130;21.270;2023-04-06T12:21:21;100764.03;;;21.40
76009;BMP280;64700;52.130;21.270;2023-04-06T12:23:46;100775.56;;;21.35
76009;BMP280;64700;52.130;21.270;2023-04-06T12:26:11;100768.75;;;21.39
76009;BMP280;64700;52.130;21.270;2023-04-06T12:28:36;100762.84;;;21.41
76009;BMP280;64700;52.130;21.270;2023-04-06T12:31:01;100770.06;;;21.44
76009;BMP280;64700;52.130;21.270;2023-04-06T12:33:27;100762.47;;;21.48
76009;BMP280;64700;52.130;21.270;2023-04-06T12:35:52;100775.34;;;21.47
76009;BMP280;64700;52.130;21.270;2023-04-06T12:38:17;100771.13;;;21.46
76009;BMP280;64700;52.130;21.270;2023-04-06T12:40:42;100770.53;;;21.42
76009;BMP280;64700;52.130;21.270;2023-04-06T12:43:08;100766.63;;;21.43
76009;BMP280;64700;52.130;21.270;2023-04-06T12:45:33;100759.09;;;21.38
76009;BMP280;64700;52.130;21.270;2023-04-06T12:47:59;100760.00;;;21.35
76009;BMP280;64700;52.130;21.270;2023-04-06T12:50:24;100748.81;;;21.33
76009;BMP280;64700;52.130;21.270;2023-04-06T12:52:50;100745.47;;;21.38
76009;BMP280;64700;52.130;21.270;2023-04-06T12:55:15;100736.13;;;21.39
76009;BMP280;64700;52.130;21.270;2023-04-06T12:57:40;100736.22;;;21.36
76009;BMP280;64700;52.130;21.270;2023-04-06T13:00:06;100736.56;;;21.38
76009;BMP280;64700;52.130;21.270;2023-04-06T13:02:32;100735.34;;;21.39
76009;BMP280;64700;52.130;21.270;2023-04-06T13:04:57;100730.19;;;21.41
76009;BMP280;64700;52.130;21.270;2023-04-06T13:07:23;100726.44;;;21.38
76009;BMP280;64700;52.130;21.270;2023-04-06T13:09:48;100730.66;;;21.39
76009;BMP280;64700;52.130;21.270;2023-04-06T13:12:14;100731.69;;;21.42
76009;BMP280;64700;52.130;21.270;2023-04-06T13:14:40;100715.38;;;21.42
76009;BMP280;64700;52.130;21.270;2023-04-06T13:17:05;100718.56;;;21.40
76009;BMP280;64700;52.130;21.270;2023-04-06T13:19:31;100718.84;;;21.42
76009;BMP280;64700;52.130;21.270;2023-04-06T13:21:56;100719.44;;;21.46
76009;BMP280;64700;52.130;21.270;2023-04-06T13:24:21;100712.94;;;21.44
76009;BMP280;64700;52.130;21.270;2023-04-06T13:26:48;100721.84;;;21.44
76009;BMP280;64700;52.130;21.270;2023-04-06T13:29:13;100725.03;;;21.43
76009;BMP280;64700;52.130;21.270;2023-04-06T13:31:38;100730.00;;;21.44
76009;BMP280;64700;52.130;21.270;2023-04-06T13:34:03;100726.53;;;21.44
76009;BMP280;64700;52.130;21.270;2023-04-06T13:36:29;100718.94;;;21.48
76009;BMP280;64700;52.130;21.270;2023-04-06T13:38:55;100711.84;;;21.50
76009;BMP280;64700;52.130;21.270;2023-04-06T13:41:21;100713.50;;;21.48
76009;BMP280;64700;52.130;21.270;2023-04-06T13:43:47;100699.81;;;21.42